Pettisville, Ohio
Current Conditions -  °F | °C
As of 12:35 AM on Saturday 25 Oct 2014 (Local Time) from KUSE Reporting Station
Haze Haze  
Wind Chill: 44°   Ceiling: Unl
Heat Index: 46°   Visibility: 3mi
Dew Point: 45°   Wind: 5mph
Humidity: 93%   Direction: 220°SW
Pressure: 29.96"   Gusts: NA
Location:  41.53°N, 84.23°W
Report Text: KUSE 250435Z AUTO 22004KT 3SM BR CLR 08/07 A2996 RMK AO2
Loading
Personal Weather Stations






























Interactive Weather Map
Tropical Storm Tracking
New forecast layout! Learn more

10-Day Weather Forecast

Advertisements
Track Severe Weather on mobile